createdAt,value
2023-01-21T00:02:56.738Z,100923.69
2023-01-21T00:08:01.812Z,100923.06
2023-01-21T00:13:06.822Z,100926.66
2023-01-21T00:18:09.699Z,100933.94
2023-01-21T00:23:12.940Z,100940.41
2023-01-21T00:28:17.019Z,100945.44
2023-01-21T00:33:19.780Z,100955.31
2023-01-21T00:38:22.505Z,100963.09
2023-01-21T00:43:26.669Z,100958.06
2023-01-21T00:48:29.457Z,100965.09
2023-01-21T00:53:34.793Z,100963.94
2023-01-21T00:58:39.341Z,100973.44
2023-01-21T01:03:42.679Z,100966.53
2023-01-21T01:08:46.217Z,100974.53
2023-01-21T01:13:50.324Z,100973.78
2023-01-21T01:18:53.452Z,100971.38
2023-01-21T01:24:00.525Z,100977.88
2023-01-21T01:29:05.648Z,100983.13
2023-01-21T01:34:08.491Z,100974.44
2023-01-21T01:39:11.296Z,100980.31
2023-01-21T01:44:51.668Z,100995.53
2023-01-21T01:49:56.215Z,100989.97
2023-01-21T01:55:00.982Z,100995.44
2023-01-21T02:00:05.928Z,100992.19
2023-01-21T02:05:14.524Z,100992.31
2023-01-21T02:10:21.361Z,100998.50
2023-01-21T02:15:29.332Z,100999.25
2023-01-21T02:21:16.574Z,101001.53
2023-01-21T02:26:54.856Z,101003.59
2023-01-21T02:32:11.909Z,101007.16
2023-01-21T02:37:18.772Z,101016.75
2023-01-21T02:42:25.846Z,101023.06
2023-01-21T02:47:31.445Z,101018.41
2023-01-21T02:52:35.662Z,101026.25
2023-01-21T02:57:44.707Z,101026.00
2023-01-21T03:03:20.112Z,101025.09
2023-01-21T03:08:30.348Z,101032.09
2023-01-21T03:13:53.082Z,101035.38
2023-01-21T03:18:56.772Z,101032.19
2023-01-21T03:24:01.101Z,101038.53
2023-01-21T03:29:07.544Z,101044.88
2023-01-21T03:34:12.875Z,101037.03
2023-01-21T03:39:19.718Z,101038.63
2023-01-21T03:44:22.601Z,101051.56
2023-01-21T03:49:29.761Z,101047.06
2023-01-21T03:54:34.015Z,101040.22
2023-01-21T03:59:36.755Z,101047.13
2023-01-21T04:04:39.584Z,101050.56
2023-01-21T04:09:43.895Z,101046.94
2023-01-21T04:14:46.646Z,101046.06
2023-01-21T04:19:49.396Z,101047.56
2023-01-21T04:24:53.464Z,101050.91
2023-01-21T04:29:56.185Z,101054.19
2023-01-21T04:34:58.864Z,101055.75
2023-01-21T04:40:03.206Z,101068.81
2023-01-21T04:45:07.236Z,101085.44
2023-01-21T04:50:11.525Z,101089.16
2023-01-21T04:55:15.664Z,101097.19
2023-01-21T05:00:19.366Z,101091.88
2023-01-21T05:05:22.188Z,101105.94
2023-01-21T05:10:26.385Z,101119.88
2023-01-21T05:15:29.305Z,101116.75
2023-01-21T05:20:32.225Z,101131.13
2023-01-21T05:25:36.349Z,101125.69
2023-01-21T05:30:41.027Z,101127.38
2023-01-21T05:35:44.516Z,101132.56
2023-01-21T05:40:48.691Z,101128.34
2023-01-21T05:45:51.419Z,101137.34
2023-01-21T05:50:54.912Z,101132.91
2023-01-21T05:55:59.920Z,101143.38
2023-01-21T06:01:02.650Z,101141.59
2023-01-21T06:06:05.937Z,101149.19
2023-01-21T06:11:10.061Z,101145.53
2023-01-21T06:16:12.861Z,101136.88
2023-01-21T06:21:15.578Z,101134.28
2023-01-21T06:26:19.754Z,101135.97
2023-01-21T06:31:22.576Z,101135.91
2023-01-21T06:36:25.508Z,101132.19
2023-01-21T06:41:29.641Z,101141.81
2023-01-21T06:46:32.404Z,101136.59
2023-01-21T06:51:35.149Z,101151.69
2023-01-21T06:56:40.987Z,101154.75
2023-01-21T07:01:43.705Z,101161.13
2023-01-21T07:06:46.435Z,101169.94
2023-01-21T07:11:50.644Z,101174.97
2023-01-21T07:16:53.559Z,101178.44
2023-01-21T07:21:56.322Z,101182.66
2023-01-21T07:27:00.366Z,101183.22
2023-01-21T07:32:03.226Z,101172.75
2023-01-21T07:37:05.947Z,101168.34
2023-01-21T07:42:10.790Z,101178.28
2023-01-21T07:47:13.529Z,101180.97
2023-01-21T07:52:16.227Z,101178.59
2023-01-21T07:57:20.443Z,101185.28
2023-01-21T08:02:23.472Z,101178.19
2023-01-21T08:07:26.251Z,101174.97
2023-01-21T08:12:30.412Z,101172.22
2023-01-21T08:17:33.106Z,101174.25
2023-01-21T08:22:35.792Z,101182.44
2023-01-21T08:27:39.865Z,101185.47
2023-01-21T08:32:42.606Z,101184.13
2023-01-21T08:37:45.370Z,101184.75
2023-01-21T08:42:49.473Z,101182.19
2023-01-21T08:47:52.176Z,101175.19
2023-01-21T08:52:56.081Z,101177.81
2023-01-21T08:58:00.827Z,101192.16
2023-01-21T09:03:03.848Z,101185.94
2023-01-21T09:08:06.726Z,101193.13
2023-01-21T09:13:11.912Z,101193.91
2023-01-21T09:18:14.654Z,101197.94
2023-01-21T09:23:27.600Z,101198.50
2023-01-21T09:28:33.069Z,101204.00
2023-01-21T09:33:37.645Z,101194.34
2023-01-21T09:38:42.648Z,101192.00
2023-01-21T09:43:48.995Z,101196.34
2023-01-21T09:48:52.008Z,101198.72
2023-01-21T09:53:57.211Z,101206.34
2023-01-21T09:59:05.409Z,101205.19
2023-01-21T10:04:29.304Z,101212.81
2023-01-21T10:09:43.503Z,101217.78
2023-01-21T10:15:10.271Z,101219.38
2023-01-21T10:20:15.666Z,101215.66
2023-01-21T10:25:21.321Z,101213.59
2023-01-21T10:30:28.848Z,101210.88
2023-01-21T10:35:43.578Z,101211.41
2023-01-21T10:40:49.991Z,101216.41
2023-01-21T10:45:59.041Z,101213.47
2023-01-21T10:51:06.155Z,101207.41
2023-01-21T10:56:17.331Z,101210.25
2023-01-21T11:01:24.277Z,101198.44
2023-01-21T11:06:27.301Z,101206.81
2023-01-21T11:11:32.142Z,101192.13
2023-01-21T11:16:42.907Z,101194.31
2023-01-21T11:22:04.035Z,101186.53
2023-01-21T11:27:06.755Z,101184.78
2023-01-21T11:32:18.453Z,101181.97
2023-01-21T11:37:24.466Z,101177.72
2023-01-21T11:42:27.755Z,101170.22
2023-01-21T11:47:37.973Z,101153.06
2023-01-21T11:52:40.837Z,101157.66
2023-01-21T11:57:46.999Z,101151.31
2023-01-21T12:02:53.147Z,101143.28
2023-01-21T12:07:56.668Z,101144.88
2023-01-21T12:13:15.597Z,101131.09
2023-01-21T12:18:30.039Z,101122.84
2023-01-21T12:23:49.132Z,101116.19
2023-01-21T12:29:03.505Z,101113.78
2023-01-21T12:34:12.782Z,101120.31
2023-01-21T12:39:20.973Z,101102.69
2023-01-21T12:44:28.846Z,101096.53
2023-01-21T12:49:50.031Z,101096.88
2023-01-21T12:54:58.783Z,101091.91
2023-01-21T13:00:05.340Z,101089.16
2023-01-21T13:05:14.180Z,101086.31
2023-01-21T13:10:20.606Z,101089.81
2023-01-21T13:15:26.440Z,101075.16
2023-01-21T13:20:31.752Z,101068.91
2023-01-21T13:25:42.197Z,101068.06
2023-01-21T13:30:49.527Z,101080.25
2023-01-21T13:36:01.379Z,101071.16
2023-01-21T13:41:15.070Z,101075.75
2023-01-21T13:46:26.950Z,101075.28
2023-01-21T13:51:45.093Z,101079.94
2023-01-21T13:57:03.790Z,101071.75
2023-01-21T14:02:09.889Z,101074.03
2023-01-21T14:07:17.576Z,101068.25
2023-01-21T14:12:24.122Z,101056.34
2023-01-21T14:17:45.704Z,101059.88
2023-01-21T14:23:00.966Z,101050.75
2023-01-21T14:28:09.985Z,101053.91
2023-01-21T14:33:15.853Z,101040.28
2023-01-21T14:38:27.543Z,101043.81
2023-01-21T14:43:49.170Z,101033.50
2023-01-21T14:49:00.137Z,101029.31
2023-01-21T14:54:05.799Z,101027.50
2023-01-21T14:59:26.232Z,101012.34
2023-01-21T15:04:30.419Z,101000.88
2023-01-21T15:09:37.198Z,100992.50
2023-01-21T15:14:41.772Z,100986.13
2023-01-21T15:19:44.634Z,100984.09
2023-01-21T15:25:19.081Z,100973.31
2023-01-21T15:30:29.735Z,100954.25
2023-01-21T15:35:34.681Z,100956.16
2023-01-21T15:40:41.362Z,100960.53
2023-01-21T15:45:50.819Z,100959.25
2023-01-21T15:50:58.029Z,100955.13
2023-01-21T15:56:14.633Z,100954.25
2023-01-21T16:01:23.437Z,100947.03
2023-01-21T16:06:30.735Z,100951.16
2023-01-21T16:11:46.212Z,100959.81
2023-01-21T16:16:57.222Z,100949.94
2023-01-21T16:22:02.214Z,100940.72
2023-01-21T16:27:20.179Z,100929.41
2023-01-21T16:32:22.970Z,100926.06
2023-01-21T16:37:27.152Z,100934.56
2023-01-21T16:42:44.247Z,100933.56
2023-01-21T16:47:47.932Z,100937.16
2023-01-21T16:52:51.093Z,100935.53
2023-01-21T16:57:56.758Z,100935.03
2023-01-21T17:03:00.508Z,100938.13
2023-01-21T17:08:04.972Z,100938.22
2023-01-21T17:13:15.847Z,100936.94
2023-01-21T17:18:20.943Z,100943.50
2023-01-21T17:23:26.602Z,100940.44
2023-01-21T17:28:32.794Z,100942.72
2023-01-21T17:33:35.628Z,100941.50
2023-01-21T17:38:42.875Z,100939.00
2023-01-21T17:43:50.036Z,100944.22
2023-01-21T17:48:54.841Z,100938.91
2023-01-21T17:53:59.875Z,100940.72
2023-01-21T17:59:04.629Z,100938.47
2023-01-21T18:04:07.320Z,100940.19
2023-01-21T18:09:11.419Z,100933.53
2023-01-21T18:14:17.353Z,100932.69
2023-01-21T18:19:38.625Z,100925.28
2023-01-21T18:24:41.431Z,100934.06
2023-01-21T18:29:45.733Z,100938.84
2023-01-21T18:34:48.567Z,100939.50
2023-01-21T18:39:51.354Z,100946.38
2023-01-21T18:44:55.385Z,100937.75
2023-01-21T18:50:02.832Z,100938.44
2023-01-21T18:55:07.129Z,100927.56
2023-01-21T19:00:19.152Z,100934.25
2023-01-21T19:05:22.522Z,100934.84
2023-01-21T19:10:25.301Z,100934.47
2023-01-21T19:15:29.837Z,100933.28
2023-01-21T19:20:32.645Z,100930.97
2023-01-21T19:25:35.364Z,100941.19
2023-01-21T19:30:44.932Z,100940.88
2023-01-21T19:35:47.800Z,100944.81
2023-01-21T19:40:50.747Z,100933.69
2023-01-21T19:45:55.780Z,100947.56
2023-01-21T19:50:58.640Z,100944.44
2023-01-21T19:56:02.567Z,100952.06
2023-01-21T20:01:06.703Z,100948.47
2023-01-21T20:06:11.306Z,100958.81
2023-01-21T20:11:14.048Z,100964.47
2023-01-21T20:16:20.884Z,100962.84
2023-01-21T20:21:23.757Z,100961.88
2023-01-21T20:26:28.483Z,100974.88
2023-01-21T20:31:33.027Z,100979.34
2023-01-21T20:36:36.823Z,100975.22
2023-01-21T20:41:40.826Z,100982.34
2023-01-21T20:46:45.753Z,100982.06
2023-01-21T20:51:48.543Z,100991.28
2023-01-21T20:56:51.306Z,100993.84
2023-01-21T21:01:56.038Z,100999.03
2023-01-21T21:06:58.819Z,101002.38
2023-01-21T21:12:01.711Z,100999.81
2023-01-21T21:17:06.779Z,100994.78
2023-01-21T21:22:09.715Z,101011.97
2023-01-21T21:27:13.390Z,101022.31
2023-01-21T21:32:17.647Z,101012.78
2023-01-21T21:37:20.407Z,101036.78
2023-01-21T21:42:40.808Z,101028.13
2023-01-21T21:48:02.614Z,101029.22
2023-01-21T21:53:05.451Z,101034.13
2023-01-21T21:58:08.190Z,101027.25
2023-01-21T22:03:13.807Z,101024.91
2023-01-21T22:08:16.635Z,101029.41
2023-01-21T22:13:19.445Z,101038.53
2023-01-21T22:18:23.635Z,101043.28
2023-01-21T22:23:26.319Z,101039.78
2023-01-21T22:28:29.384Z,101045.84
2023-01-21T22:33:33.763Z,101052.78
2023-01-21T22:38:40.307Z,101056.50
2023-01-21T22:43:44.729Z,101065.94
2023-01-21T22:48:49.133Z,101070.22
2023-01-21T22:53:52.080Z,101058.03
2023-01-21T22:58:54.979Z,101074.63
2023-01-21T23:04:00.031Z,101066.72
2023-01-21T23:09:02.847Z,101078.88
2023-01-21T23:14:05.572Z,101062.59
2023-01-21T23:19:09.604Z,101069.16
2023-01-21T23:24:12.416Z,101070.97
2023-01-21T23:29:15.068Z,101067.38
2023-01-21T23:34:22.599Z,101068.38
2023-01-21T23:39:25.475Z,101068.97
2023-01-21T23:44:28.194Z,101070.75
2023-01-21T23:49:32.592Z,101064.75
2023-01-21T23:54:35.386Z,101060.63
2023-01-21T23:59:38.194Z,101069.22
